createdAt,value
2017-11-21T00:01:30.364Z,7.90
2017-11-21T00:03:58.324Z,7.80
2017-11-21T00:06:27.974Z,7.80
2017-11-21T00:08:57.030Z,7.80
2017-11-21T00:11:25.393Z,7.80
2017-11-21T00:14:00.281Z,7.80
2017-11-21T00:16:29.981Z,7.70
2017-11-21T00:18:58.703Z,7.70
2017-11-21T00:21:28.377Z,7.60
2017-11-21T00:23:59.249Z,7.60
2017-11-21T00:26:32.010Z,7.60
2017-11-21T00:31:35.696Z,7.50
2017-11-21T00:34:04.035Z,7.50
2017-11-21T00:36:36.053Z,7.40
2017-11-21T00:39:04.008Z,7.40
2017-11-21T00:41:31.330Z,7.40
2017-11-21T00:44:00.523Z,7.40
2017-11-21T00:46:29.298Z,7.40
2017-11-21T00:48:58.121Z,7.30
2017-11-21T00:51:27.593Z,7.30
2017-11-21T00:53:55.671Z,7.30
2017-11-21T00:56:25.583Z,7.20
2017-11-21T00:58:53.641Z,7.20
2017-11-21T01:01:22.620Z,7.10
2017-11-21T01:03:51.463Z,7.10
2017-11-21T01:06:20.961Z,7.00
2017-11-21T01:08:49.070Z,7.10
2017-11-21T01:11:17.373Z,7.10
2017-11-21T01:13:46.137Z,7.20
2017-11-21T01:16:14.258Z,7.10
2017-11-21T01:18:41.892Z,7.10
2017-11-21T01:21:08.990Z,7.10
2017-11-21T01:23:37.117Z,7.10
2017-11-21T01:26:07.340Z,7.10
2017-11-21T01:28:34.915Z,7.20
2017-11-21T01:31:02.039Z,7.20
2017-11-21T01:33:29.926Z,7.20
2017-11-21T01:35:57.712Z,7.20
2017-11-21T01:38:25.933Z,7.20
2017-11-21T01:40:53.774Z,7.20
2017-11-21T01:43:22.146Z,7.30
2017-11-21T01:45:49.317Z,7.20
2017-11-21T01:48:17.496Z,7.30
2017-11-21T01:50:44.645Z,7.40
2017-11-21T01:53:11.835Z,7.40
2017-11-21T01:55:39.760Z,7.30
2017-11-21T01:58:07.304Z,7.30
2017-11-21T02:00:34.601Z,7.40
2017-11-21T02:03:04.553Z,7.40
2017-11-21T02:05:33.337Z,7.40
2017-11-21T02:08:02.174Z,7.40
2017-11-21T02:10:32.362Z,7.40
2017-11-21T02:13:00.036Z,7.50
2017-11-21T02:15:28.342Z,7.50
2017-11-21T02:17:55.442Z,7.50
2017-11-21T02:20:24.773Z,7.50
2017-11-21T02:22:54.521Z,7.50
2017-11-21T02:25:23.973Z,7.50
2017-11-21T02:27:52.434Z,7.50
2017-11-21T02:30:20.885Z,7.50
2017-11-21T02:32:49.225Z,7.40
2017-11-21T02:35:16.420Z,7.50
2017-11-21T02:37:44.048Z,7.40
2017-11-21T02:40:12.431Z,7.50
2017-11-21T02:42:40.349Z,7.50
2017-11-21T02:45:10.422Z,7.50
2017-11-21T02:47:37.576Z,7.50
2017-11-21T02:50:05.383Z,7.50
2017-11-21T02:52:33.221Z,7.50
2017-11-21T02:55:01.828Z,7.60
2017-11-21T02:57:33.651Z,7.50
2017-11-21T03:00:02.010Z,7.50
2017-11-21T03:02:32.434Z,7.50
2017-11-21T03:05:06.377Z,7.60
2017-11-21T03:07:39.081Z,7.60
2017-11-21T03:10:08.905Z,7.60
2017-11-21T03:12:38.561Z,7.60
2017-11-21T03:15:17.920Z,7.70
2017-11-21T03:17:56.561Z,7.70
2017-11-21T03:23:18.393Z,7.60
2017-11-21T03:26:04.099Z,7.60
2017-11-21T03:28:45.051Z,7.60
2017-11-21T03:31:19.586Z,7.60
2017-11-21T03:33:55.758Z,7.60
2017-11-21T03:36:35.154Z,7.60
2017-11-21T03:47:20.970Z,7.60
2017-11-21T03:49:56.550Z,7.60
2017-11-21T03:55:10.145Z,7.60
2017-11-21T03:57:37.148Z,7.60
2017-11-21T04:00:04.920Z,7.60
2017-11-21T04:02:31.912Z,7.60
2017-11-21T04:04:58.908Z,7.60
2017-11-21T04:07:25.908Z,7.60
2017-11-21T04:09:52.905Z,7.80
2017-11-21T04:12:19.919Z,7.80
2017-11-21T04:14:46.916Z,7.70
2017-11-21T04:17:13.908Z,7.70
2017-11-21T04:19:40.912Z,7.60
2017-11-21T04:22:07.908Z,7.60
2017-11-21T04:24:35.167Z,7.60
2017-11-21T04:27:02.158Z,7.60
2017-11-21T04:29:29.164Z,7.60
2017-11-21T04:31:56.155Z,7.50
2017-11-21T04:34:23.155Z,7.50
2017-11-21T04:36:50.152Z,7.50
2017-11-21T04:39:17.915Z,7.60
2017-11-21T04:41:44.920Z,7.60
2017-11-21T04:44:11.942Z,7.60
2017-11-21T04:46:38.933Z,7.60
2017-11-21T04:49:05.931Z,7.60
2017-11-21T04:51:32.926Z,7.60
2017-11-21T04:53:59.932Z,7.60
2017-11-21T04:56:26.920Z,7.60
2017-11-21T04:58:53.915Z,7.60
2017-11-21T05:01:20.910Z,7.70
2017-11-21T05:03:48.143Z,7.70
2017-11-21T05:06:15.133Z,7.80
2017-11-21T05:08:42.149Z,7.70
2017-11-21T05:11:09.147Z,7.80
2017-11-21T05:13:36.143Z,7.80
2017-11-21T05:16:03.143Z,7.90
2017-11-21T05:18:30.127Z,7.90
2017-11-21T05:20:57.132Z,8.00
2017-11-21T05:23:24.129Z,8.10
2017-11-21T05:25:51.124Z,8.10
2017-11-21T05:28:18.127Z,8.10
2017-11-21T05:30:45.128Z,8.20
2017-11-21T05:33:29.570Z,8.20
2017-11-21T05:35:56.571Z,8.20
2017-11-21T05:38:23.563Z,8.30
2017-11-21T05:40:50.565Z,8.30
2017-11-21T05:43:17.555Z,8.30
2017-11-21T05:45:44.557Z,8.30
2017-11-21T05:48:11.544Z,8.30
2017-11-21T05:50:38.543Z,8.40
2017-11-21T05:53:12.501Z,8.40
2017-11-21T05:55:39.504Z,8.40
2017-11-21T05:58:06.490Z,8.40
2017-11-21T06:00:33.492Z,8.40
2017-11-21T06:03:00.475Z,8.40
2017-11-21T06:05:27.480Z,8.40
2017-11-21T06:07:54.472Z,8.40
2017-11-21T06:10:21.505Z,8.30
2017-11-21T06:12:48.502Z,8.30
2017-11-21T06:15:15.505Z,8.40
2017-11-21T06:17:43.259Z,8.40
2017-11-21T06:20:10.256Z,8.40
2017-11-21T06:22:37.254Z,8.40
2017-11-21T06:25:04.253Z,8.40
2017-11-21T06:27:31.263Z,8.50
2017-11-21T06:29:58.251Z,8.40
2017-11-21T06:32:25.245Z,8.40
2017-11-21T06:34:52.243Z,8.40
2017-11-21T06:37:19.239Z,8.60
2017-11-21T06:39:46.233Z,8.60
2017-11-21T06:42:13.233Z,8.60
2017-11-21T06:44:40.224Z,8.60
2017-11-21T06:47:07.222Z,8.50
2017-11-21T06:49:43.451Z,8.60
2017-11-21T06:52:10.465Z,8.60
2017-11-21T06:54:37.459Z,8.60
2017-11-21T06:57:04.464Z,8.70
2017-11-21T06:59:31.460Z,8.60
2017-11-21T07:01:59.223Z,8.70
2017-11-21T07:04:26.987Z,8.70
2017-11-21T07:06:54.755Z,8.60
2017-11-21T07:09:28.467Z,8.60
2017-11-21T07:11:55.476Z,8.60
2017-11-21T07:14:22.476Z,8.60
2017-11-21T07:16:49.481Z,8.60
2017-11-21T07:19:16.571Z,8.60
2017-11-21T07:21:43.561Z,8.60
2017-11-21T07:24:10.560Z,8.60
2017-11-21T07:26:37.564Z,8.60
2017-11-21T07:29:04.576Z,8.60
2017-11-21T07:31:31.566Z,8.60
2017-11-21T07:33:59.334Z,8.70
2017-11-21T07:36:27.087Z,8.70
2017-11-21T07:38:54.851Z,8.70
2017-11-21T07:41:22.611Z,8.70
2017-11-21T07:43:50.374Z,8.70
2017-11-21T07:46:18.136Z,8.80
2017-11-21T07:48:45.905Z,8.80
2017-11-21T07:51:13.659Z,8.80
2017-11-21T07:53:41.427Z,8.90
2017-11-21T07:56:08.415Z,8.90
2017-11-21T07:58:35.426Z,8.90
2017-11-21T08:01:03.185Z,8.70
2017-11-21T08:03:30.943Z,8.70
2017-11-21T08:05:58.707Z,8.60
2017-11-21T08:08:26.467Z,8.60
2017-11-21T08:10:54.226Z,8.60
2017-11-21T08:13:21.224Z,8.60
2017-11-21T08:15:48.223Z,8.60
2017-11-21T08:18:15.979Z,8.40
2017-11-21T08:20:42.991Z,8.40
2017-11-21T08:23:09.983Z,8.40
2017-11-21T08:25:37.760Z,8.40
2017-11-21T08:28:05.507Z,8.40
2017-11-21T08:30:33.281Z,8.40
2017-11-21T08:33:01.035Z,8.40
2017-11-21T08:35:28.799Z,8.40
2017-11-21T08:37:56.563Z,8.40
2017-11-21T08:40:24.328Z,8.40
2017-11-21T08:42:52.084Z,8.30
2017-11-21T08:45:19.850Z,8.40
2017-11-21T08:47:47.632Z,8.40
2017-11-21T08:50:14.637Z,8.30
2017-11-21T08:52:41.627Z,8.30
2017-11-21T08:55:08.620Z,8.40
2017-11-21T08:57:35.611Z,8.40
2017-11-21T09:00:02.634Z,8.30
2017-11-21T09:02:29.641Z,8.30
2017-11-21T09:04:56.636Z,8.30
2017-11-21T09:07:24.403Z,8.40
2017-11-21T09:09:52.163Z,8.40
2017-11-21T09:12:19.931Z,8.40
2017-11-21T09:14:47.695Z,8.40
2017-11-21T09:17:15.471Z,8.40
2017-11-21T09:19:42.467Z,8.40
2017-11-21T09:22:09.467Z,8.40
2017-11-21T09:24:36.463Z,8.30
2017-11-21T09:27:03.457Z,8.20
2017-11-21T09:29:30.447Z,8.30
2017-11-21T09:31:57.446Z,8.30
2017-11-21T09:34:24.448Z,8.30
2017-11-21T09:36:51.438Z,8.40
2017-11-21T09:39:18.439Z,8.40
2017-11-21T09:41:45.437Z,8.40
2017-11-21T09:44:12.439Z,8.50
2017-11-21T09:46:40.204Z,8.50
2017-11-21T09:49:07.981Z,8.50
2017-11-21T09:51:35.750Z,8.50
2017-11-21T09:54:03.519Z,8.50
2017-11-21T09:56:30.520Z,8.50
2017-11-21T09:58:57.523Z,8.50
2017-11-21T10:01:24.527Z,8.50
2017-11-21T10:03:51.537Z,8.50
2017-11-21T10:06:18.528Z,8.50
2017-11-21T10:08:46.300Z,8.50
2017-11-21T10:11:14.059Z,8.50
2017-11-21T10:13:41.832Z,8.50
2017-11-21T10:16:08.827Z,8.50
2017-11-21T10:18:35.847Z,8.60
2017-11-21T10:21:02.838Z,8.60
2017-11-21T10:23:29.841Z,8.60
2017-11-21T10:25:56.836Z,8.70
2017-11-21T10:28:24.600Z,8.70
2017-11-21T10:30:51.611Z,8.70
2017-11-21T10:33:18.606Z,8.70
2017-11-21T10:35:46.384Z,8.70
2017-11-21T10:38:13.376Z,8.70
2017-11-21T10:40:40.376Z,8.70
2017-11-21T10:43:07.390Z,8.70
2017-11-21T10:45:34.403Z,8.70
2017-11-21T10:48:01.391Z,8.70
2017-11-21T10:50:29.155Z,8.80
2017-11-21T10:52:56.919Z,8.80
2017-11-21T10:55:24.684Z,8.80
2017-11-21T10:57:52.442Z,8.90
2017-11-21T11:00:20.203Z,8.80
2017-11-21T11:02:47.209Z,8.80
2017-11-21T11:05:14.209Z,8.90
2017-11-21T11:07:41.967Z,9.00
2017-11-21T11:10:09.731Z,9.00
2017-11-21T11:12:37.504Z,9.00
2017-11-21T11:15:05.263Z,9.00
2017-11-21T11:17:33.024Z,9.10
2017-11-21T11:20:00.787Z,9.00
2017-11-21T11:22:28.539Z,9.10
2017-11-21T11:24:56.295Z,9.10
2017-11-21T11:27:24.063Z,9.10
2017-11-21T11:29:51.827Z,9.30
2017-11-21T11:32:19.592Z,9.40
2017-11-21T11:34:47.342Z,9.40
2017-11-21T11:37:14.362Z,9.40
2017-11-21T11:39:41.347Z,9.40
2017-11-21T11:42:09.116Z,9.50
2017-11-21T11:44:36.876Z,9.50
2017-11-21T11:47:04.638Z,9.30
2017-11-21T11:49:32.396Z,9.40
2017-11-21T11:52:00.160Z,9.50
2017-11-21T11:54:27.920Z,9.50
2017-11-21T11:56:54.925Z,9.50
2017-11-21T11:59:21.919Z,9.50
2017-11-21T12:01:49.680Z,9.70
2017-11-21T12:04:17.434Z,9.70
2017-11-21T12:06:45.202Z,9.80
2017-11-21T12:09:12.960Z,9.80
2017-11-21T12:11:40.731Z,9.90
2017-11-21T12:14:08.488Z,9.90
2017-11-21T12:16:36.255Z,10.00
2017-11-21T12:19:04.019Z,10.00
2017-11-21T12:21:31.784Z,9.90
2017-11-21T12:23:58.786Z,9.90
2017-11-21T12:26:25.791Z,10.00
2017-11-21T12:28:52.792Z,9.90
2017-11-21T12:31:19.794Z,10.00
2017-11-21T12:33:46.794Z,10.00
2017-11-21T12:36:13.795Z,10.10
2017-11-21T12:38:40.804Z,10.20
2017-11-21T12:41:08.572Z,10.40
2017-11-21T12:43:36.370Z,10.40
2017-11-21T12:46:03.364Z,10.40
2017-11-21T12:48:30.361Z,10.40
2017-11-21T12:50:57.364Z,10.50
2017-11-21T12:53:25.152Z,10.70
2017-11-21T12:55:52.160Z,10.70
2017-11-21T12:58:19.164Z,10.80
2017-11-21T13:00:46.171Z,11.00
2017-11-21T13:03:13.945Z,11.40
2017-11-21T13:05:40.945Z,11.40
2017-11-21T13:08:07.940Z,11.50
2017-11-21T13:10:34.948Z,11.50
2017-11-21T13:13:01.981Z,11.50
2017-11-21T13:15:28.976Z,11.50
2017-11-21T13:17:56.001Z,11.50
2017-11-21T13:20:23.767Z,11.30
2017-11-21T13:22:51.537Z,11.20
2017-11-21T13:25:19.311Z,11.30
2017-11-21T13:27:46.315Z,11.20
2017-11-21T13:30:13.319Z,11.20
2017-11-21T13:32:40.320Z,11.20
2017-11-21T13:35:07.328Z,11.20
2017-11-21T13:37:34.331Z,11.10
2017-11-21T13:40:02.104Z,11.10
2017-11-21T13:42:29.107Z,11.10
2017-11-21T13:44:56.116Z,11.10
2017-11-21T13:47:23.111Z,11.10
2017-11-21T13:49:50.123Z,11.10
2017-11-21T13:52:17.129Z,11.00
2017-11-21T13:54:44.135Z,11.00
2017-11-21T13:57:11.142Z,11.00
2017-11-21T13:59:38.153Z,11.00
2017-11-21T14:02:05.916Z,11.00
2017-11-21T14:04:33.683Z,11.00
2017-11-21T14:07:01.447Z,11.00
2017-11-21T14:09:30.016Z,11.00
2017-11-21T14:11:57.792Z,11.00
2017-11-21T14:14:25.555Z,11.00
2017-11-21T14:16:53.330Z,11.00
2017-11-21T14:19:20.332Z,11.00
2017-11-21T14:21:47.345Z,10.90
2017-11-21T14:24:14.341Z,10.90
2017-11-21T14:26:41.348Z,10.80
2017-11-21T14:29:08.343Z,10.80
2017-11-21T14:31:36.115Z,10.80
2017-11-21T14:34:03.122Z,10.80
2017-11-21T14:36:30.125Z,10.80
2017-11-21T14:38:57.139Z,10.80
2017-11-21T14:41:24.140Z,10.70
2017-11-21T14:43:51.151Z,10.70
2017-11-21T14:46:18.151Z,10.70
2017-11-21T14:48:45.151Z,10.60
2017-11-21T14:51:12.164Z,10.50
2017-11-21T14:53:39.928Z,10.40
2017-11-21T14:56:07.703Z,10.40
2017-11-21T14:58:35.476Z,10.30
2017-11-21T15:01:02.491Z,10.30
2017-11-21T15:03:29.488Z,10.20
2017-11-21T15:05:56.514Z,10.10
2017-11-21T15:08:23.519Z,10.10
2017-11-21T15:10:50.517Z,10.00
2017-11-21T15:13:17.519Z,9.90
2017-11-21T15:15:44.516Z,9.90
2017-11-21T15:18:11.524Z,9.80
2017-11-21T15:20:39.292Z,9.70
2017-11-21T15:23:07.087Z,9.60
2017-11-21T15:25:34.903Z,9.60
2017-11-21T15:28:01.911Z,9.60
2017-11-21T15:30:28.907Z,9.50
2017-11-21T15:32:56.672Z,9.40
2017-11-21T15:35:24.437Z,9.30
2017-11-21T15:37:52.208Z,9.30
2017-11-21T15:40:19.202Z,9.20
2017-11-21T15:42:46.276Z,9.20
2017-11-21T15:45:13.267Z,9.10
2017-11-21T15:47:40.276Z,9.00
2017-11-21T15:50:07.272Z,9.00
2017-11-21T15:52:34.280Z,8.90
2017-11-21T15:55:01.276Z,8.90
2017-11-21T15:57:28.287Z,8.80
2017-11-21T15:59:55.279Z,8.80
2017-11-21T16:02:22.290Z,8.70
2017-11-21T16:04:49.281Z,8.70
2017-11-21T16:07:16.280Z,8.70
2017-11-21T16:09:43.278Z,8.60
2017-11-21T16:12:11.035Z,8.60
2017-11-21T16:14:38.047Z,8.60
2017-11-21T16:17:05.055Z,8.50
2017-11-21T16:19:32.060Z,8.50
2017-11-21T16:21:59.060Z,8.50
2017-11-21T16:24:26.056Z,8.40
2017-11-21T16:26:53.056Z,8.30
2017-11-21T16:29:20.055Z,8.30
2017-11-21T16:31:47.855Z,8.30
2017-11-21T16:34:14.853Z,8.20
2017-11-21T16:36:41.851Z,8.30
2017-11-21T16:39:08.855Z,8.20
2017-11-21T16:41:35.858Z,8.30
2017-11-21T16:44:02.864Z,8.20
2017-11-21T16:46:30.628Z,8.10
2017-11-21T16:48:58.390Z,8.10
2017-11-21T16:51:26.147Z,8.00
2017-11-21T16:53:53.920Z,8.00
2017-11-21T16:56:21.675Z,7.90
2017-11-21T16:58:49.441Z,7.90
2017-11-21T17:01:17.199Z,7.90
2017-11-21T17:03:44.963Z,7.90
2017-11-21T17:06:12.724Z,8.00
2017-11-21T17:08:40.494Z,8.00
2017-11-21T17:11:08.251Z,7.90
2017-11-21T17:13:36.039Z,8.00
2017-11-21T17:16:03.040Z,7.90
2017-11-21T17:18:30.036Z,7.90
2017-11-21T17:20:57.046Z,7.90
2017-11-21T17:23:24.039Z,7.90
2017-11-21T17:25:51.047Z,7.90
2017-11-21T17:28:18.072Z,7.80
2017-11-21T17:30:45.079Z,7.80
2017-11-21T17:33:12.071Z,7.80
2017-11-21T17:35:39.085Z,7.80
2017-11-21T17:38:06.084Z,7.70
2017-11-21T17:40:33.854Z,7.70
2017-11-21T17:43:01.611Z,7.60
2017-11-21T17:45:29.384Z,7.70
2017-11-21T17:47:56.611Z,7.60
2017-11-21T17:50:23.659Z,7.60
2017-11-21T17:52:50.651Z,7.60
2017-11-21T17:55:17.659Z,7.60
2017-11-21T17:57:45.419Z,7.50
2017-11-21T18:00:13.184Z,7.40
2017-11-21T18:02:40.943Z,7.40
2017-11-21T18:05:08.952Z,7.50
2017-11-21T18:07:36.005Z,7.50
2017-11-21T18:10:03.107Z,7.60
2017-11-21T18:12:30.117Z,7.70
2017-11-21T18:14:57.115Z,7.70
2017-11-21T18:17:24.876Z,7.70
2017-11-21T18:19:52.639Z,7.70
2017-11-21T18:22:20.397Z,7.60
2017-11-21T18:24:48.153Z,7.60
2017-11-21T18:27:15.163Z,7.60
2017-11-21T18:29:42.168Z,7.50
2017-11-21T18:32:09.920Z,7.50
2017-11-21T18:34:37.689Z,7.50
2017-11-21T18:37:05.466Z,7.40
2017-11-21T18:39:32.472Z,7.40
2017-11-21T18:41:59.470Z,7.40
2017-11-21T18:44:26.472Z,7.30
2017-11-21T18:46:53.480Z,7.40
2017-11-21T18:49:21.037Z,7.30
2017-11-21T18:51:48.062Z,7.30
2017-11-21T18:54:15.068Z,7.30
2017-11-21T18:56:42.071Z,7.30
2017-11-21T18:59:09.071Z,7.40
2017-11-21T19:01:36.837Z,7.30
2017-11-21T19:04:04.591Z,7.30
2017-11-21T19:06:31.602Z,7.30
2017-11-21T19:08:58.595Z,7.30
2017-11-21T19:11:26.363Z,7.30
2017-11-21T19:13:54.120Z,7.20
2017-11-21T19:16:21.125Z,7.20
2017-11-21T19:18:48.119Z,7.20
2017-11-21T19:21:15.885Z,7.10
2017-11-21T19:23:43.638Z,7.10
2017-11-21T19:26:10.642Z,7.10
2017-11-21T19:28:38.111Z,7.10
2017-11-21T19:31:08.284Z,7.00
2017-11-21T19:33:35.356Z,7.00
2017-11-21T19:36:02.419Z,7.00
2017-11-21T19:38:29.471Z,7.00
2017-11-21T19:40:56.460Z,7.00
2017-11-21T19:43:24.880Z,7.00
2017-11-21T19:45:51.976Z,7.00
2017-11-21T19:48:18.989Z,7.00
2017-11-21T19:50:45.979Z,7.10
2017-11-21T19:53:12.975Z,7.10
2017-11-21T19:55:39.979Z,7.10
2017-11-21T19:58:06.991Z,7.10
2017-11-21T20:00:37.396Z,7.00
2017-11-21T20:03:04.391Z,7.00
2017-11-21T20:05:32.156Z,6.80
2017-11-21T20:07:59.920Z,6.80
2017-11-21T20:10:27.681Z,6.80
2017-11-21T20:12:55.449Z,6.70
2017-11-21T20:15:23.208Z,6.70
2017-11-21T20:17:50.978Z,6.70
2017-11-21T20:20:18.727Z,6.70
2017-11-21T20:22:45.734Z,6.70
2017-11-21T20:25:12.727Z,6.70
2017-11-21T20:27:41.375Z,6.70
2017-11-21T20:30:08.475Z,6.70
2017-11-21T20:32:36.091Z,6.70
2017-11-21T20:35:03.095Z,6.70
2017-11-21T20:37:30.099Z,6.60
2017-11-21T20:39:57.875Z,6.40
2017-11-21T20:42:25.691Z,6.30
2017-11-21T20:44:52.692Z,6.30
2017-11-21T20:47:20.460Z,6.30
2017-11-21T20:49:48.620Z,6.30
2017-11-21T20:52:16.433Z,6.30
2017-11-21T20:54:44.004Z,6.30
2017-11-21T20:57:11.440Z,6.20
2017-11-21T20:59:38.447Z,6.30
2017-11-21T21:02:05.469Z,6.30
2017-11-21T21:04:32.794Z,6.40
2017-11-21T21:06:59.846Z,6.40
2017-11-21T21:09:26.842Z,6.40
2017-11-21T21:11:53.835Z,6.40
2017-11-21T21:14:20.835Z,6.30
2017-11-21T21:16:48.597Z,6.30
2017-11-21T21:19:15.614Z,6.20
2017-11-21T21:21:42.629Z,6.40
2017-11-21T21:24:09.665Z,6.30
2017-11-21T21:26:36.660Z,6.30
2017-11-21T21:29:03.702Z,6.30
2017-11-21T21:31:30.721Z,6.40
2017-11-21T21:33:57.772Z,6.40
2017-11-21T21:36:24.854Z,6.50
2017-11-21T21:38:51.909Z,6.50
2017-11-21T21:41:18.899Z,6.50
2017-11-21T21:43:45.912Z,6.50
2017-11-21T21:46:12.919Z,6.50
2017-11-21T21:48:39.923Z,6.40
2017-11-21T21:51:06.930Z,6.30
2017-11-21T21:53:33.938Z,6.20
2017-11-21T21:56:00.940Z,6.10
2017-11-21T21:58:30.300Z,5.90
2017-11-21T22:00:57.971Z,5.90
2017-11-21T22:03:25.518Z,5.80
2017-11-21T22:05:52.523Z,5.80
2017-11-21T22:08:20.300Z,5.60
2017-11-21T22:10:47.312Z,5.60
2017-11-21T22:13:15.087Z,5.60
2017-11-21T22:15:42.851Z,5.60
2017-11-21T22:18:10.622Z,5.50
2017-11-21T22:20:37.649Z,5.50
2017-11-21T22:23:05.407Z,5.50
2017-11-21T22:25:33.214Z,5.40
2017-11-21T22:28:00.215Z,5.40
2017-11-21T22:30:27.781Z,5.40
2017-11-21T22:32:54.784Z,5.40
2017-11-21T22:35:22.713Z,5.40
2017-11-21T22:37:49.728Z,5.30
2017-11-21T22:40:18.624Z,5.30
2017-11-21T22:42:45.617Z,5.30
2017-11-21T22:45:12.880Z,5.20
2017-11-21T22:47:39.884Z,5.00
2017-11-21T22:50:07.668Z,4.90
2017-11-21T22:52:34.663Z,4.90
2017-11-21T22:55:01.681Z,4.80
2017-11-21T22:57:29.116Z,4.80
2017-11-21T22:59:56.136Z,4.80
2017-11-21T23:02:23.916Z,4.80
2017-11-21T23:04:50.921Z,4.80
2017-11-21T23:07:17.909Z,4.90
2017-11-21T23:09:45.852Z,5.00
2017-11-21T23:12:13.620Z,5.00
2017-11-21T23:14:41.391Z,5.00
2017-11-21T23:17:08.399Z,4.90
2017-11-21T23:19:35.413Z,4.90
2017-11-21T23:22:02.549Z,4.70
2017-11-21T23:24:29.555Z,4.60
2017-11-21T23:26:56.562Z,4.50
2017-11-21T23:29:23.563Z,4.50
2017-11-21T23:31:50.567Z,4.60
2017-11-21T23:34:17.559Z,4.60
2017-11-21T23:36:44.554Z,4.60
2017-11-21T23:39:11.557Z,4.50
2017-11-21T23:41:38.561Z,4.50
2017-11-21T23:44:05.551Z,4.50
2017-11-21T23:46:32.556Z,4.50
2017-11-21T23:48:59.548Z,4.50
2017-11-21T23:51:26.545Z,4.50
2017-11-21T23:53:53.536Z,4.50
2017-11-21T23:56:20.541Z,4.40
2017-11-21T23:58:47.536Z,4.30
